createdAt,value
2022-10-06T00:01:11.741Z,100632.16
2022-10-06T00:03:40.257Z,100630.22
2022-10-06T00:06:08.821Z,100637.22
2022-10-06T00:08:38.881Z,100638.63
2022-10-06T00:11:08.109Z,100639.59
2022-10-06T00:13:36.545Z,100643.25
2022-10-06T00:16:14.438Z,100648.56
2022-10-06T00:18:42.328Z,100645.75
2022-10-06T00:21:10.432Z,100638.34
2022-10-06T00:23:38.148Z,100611.88
2022-10-06T00:26:06.312Z,100626.84
2022-10-06T00:28:34.888Z,100609.06
2022-10-06T00:31:03.024Z,100604.72
2022-10-06T00:33:30.672Z,100603.59
2022-10-06T00:35:59.187Z,100606.28
2022-10-06T00:38:27.923Z,100615.66
2022-10-06T00:40:55.599Z,100608.50
2022-10-06T00:43:44.424Z,100600.50
2022-10-06T00:46:18.059Z,100604.19
2022-10-06T00:48:49.300Z,100593.38
2022-10-06T00:51:17.120Z,100592.53
2022-10-06T00:53:44.676Z,100596.19
2022-10-06T00:56:12.738Z,100587.91
2022-10-06T00:58:40.396Z,100580.50
2022-10-06T01:01:09.366Z,100580.78
2022-10-06T01:03:47.201Z,100573.91
2022-10-06T01:06:15.021Z,100564.81
2022-10-06T01:08:42.590Z,100572.06
2022-10-06T01:11:14.641Z,100565.09
2022-10-06T01:13:46.519Z,100559.50
2022-10-06T01:16:19.943Z,100556.81
2022-10-06T01:18:48.585Z,100545.63
2022-10-06T01:21:22.894Z,100545.75
2022-10-06T01:23:50.801Z,100543.63
2022-10-06T01:26:21.710Z,100546.47
2022-10-06T01:28:49.475Z,100533.84
2022-10-06T01:31:17.981Z,100537.34
2022-10-06T01:33:45.862Z,100524.88
2022-10-06T01:36:13.337Z,100510.16
2022-10-06T01:38:41.050Z,100513.78
2022-10-06T01:41:08.808Z,100505.13
2022-10-06T01:43:36.315Z,100503.41
2022-10-06T01:46:04.067Z,100505.09
2022-10-06T01:48:32.047Z,100494.28
2022-10-06T01:50:59.759Z,100495.44
2022-10-06T01:53:27.501Z,100501.47
2022-10-06T01:55:59.908Z,100496.94
2022-10-06T01:58:27.911Z,100488.56
2022-10-06T02:00:55.652Z,100488.56
2022-10-06T02:03:23.347Z,100488.16
2022-10-06T02:05:50.976Z,100483.22
2022-10-06T02:08:18.800Z,100477.22
2022-10-06T02:10:46.473Z,100476.66
2022-10-06T02:13:14.161Z,100472.19
2022-10-06T02:15:41.856Z,100474.84
2022-10-06T02:18:09.666Z,100474.25
2022-10-06T02:20:37.381Z,100452.13
2022-10-06T02:23:04.902Z,100464.72
2022-10-06T02:25:33.169Z,100465.31
2022-10-06T02:28:00.894Z,100464.88
2022-10-06T02:30:28.810Z,100459.97
2022-10-06T02:32:56.564Z,100463.91
2022-10-06T02:35:24.836Z,100451.56
2022-10-06T02:37:52.528Z,100453.38
2022-10-06T02:40:20.322Z,100445.56
2022-10-06T02:42:48.655Z,100451.56
2022-10-06T02:45:16.205Z,100446.53
2022-10-06T02:47:43.779Z,100447.94
2022-10-06T02:50:11.413Z,100435.47
2022-10-06T02:52:41.218Z,100439.94
2022-10-06T02:55:09.389Z,100435.47
2022-10-06T02:57:37.254Z,100431.78
2022-10-06T03:00:07.547Z,100440.31
2022-10-06T03:02:36.030Z,100435.16
2022-10-06T03:05:04.058Z,100430.13
2022-10-06T03:07:31.564Z,100429.28
2022-10-06T03:09:59.391Z,100436.28
2022-10-06T03:12:27.411Z,100421.69
2022-10-06T03:14:54.958Z,100418.03
2022-10-06T03:17:22.693Z,100415.09
2022-10-06T03:19:50.810Z,100423.38
2022-10-06T03:22:18.258Z,100410.75
2022-10-06T03:24:46.189Z,100401.34
2022-10-06T03:27:13.945Z,100397.72
2022-10-06T03:29:41.454Z,100391.41
2022-10-06T03:32:09.054Z,100389.72
2022-10-06T03:34:37.671Z,100381.91
2022-10-06T03:37:05.224Z,100380.22
2022-10-06T03:39:34.526Z,100379.06
2022-10-06T03:42:02.044Z,100366.59
2022-10-06T03:44:29.551Z,100360.13
2022-10-06T03:46:57.062Z,100366.47
2022-10-06T03:49:24.772Z,100359.75
2022-10-06T03:51:54.308Z,100365.09
2022-10-06T03:54:21.793Z,100348.81
2022-10-06T03:56:49.311Z,100351.59
2022-10-06T03:59:19.494Z,100348.25
2022-10-06T04:01:48.540Z,100346.56
2022-10-06T04:04:16.150Z,100333.25
2022-10-06T04:06:44.701Z,100340.94
2022-10-06T04:09:15.552Z,100342.63
2022-10-06T04:11:44.905Z,100324.97
2022-10-06T04:14:13.843Z,100316.69
2022-10-06T04:16:49.858Z,100320.34
2022-10-06T04:19:18.268Z,100303.38
2022-10-06T04:21:47.086Z,100297.34
2022-10-06T04:24:15.851Z,100314.00
2022-10-06T04:26:45.520Z,100306.88
2022-10-06T04:29:14.590Z,100316.38
2022-10-06T04:31:42.797Z,100313.88
2022-10-06T04:34:13.391Z,100309.41
2022-10-06T04:36:42.639Z,100309.78
2022-10-06T04:39:12.060Z,100296.75
2022-10-06T04:41:41.792Z,100291.97
2022-10-06T04:44:10.449Z,100301.66
2022-10-06T04:46:43.099Z,100300.94
2022-10-06T04:49:17.986Z,100307.41
2022-10-06T04:51:50.291Z,100313.44
2022-10-06T04:54:19.186Z,100306.44
2022-10-06T04:56:47.116Z,100305.06
2022-10-06T04:59:14.886Z,100320.06
2022-10-06T05:01:42.483Z,100310.78
2022-10-06T05:04:10.254Z,100305.72
2022-10-06T05:06:41.230Z,100300.41
2022-10-06T05:09:11.746Z,100293.41
2022-10-06T05:11:39.653Z,100291.59
2022-10-06T05:14:07.515Z,100293.25
2022-10-06T05:16:38.083Z,100296.31
2022-10-06T05:19:06.659Z,100277.13
2022-10-06T05:21:34.520Z,100284.28
2022-10-06T05:24:03.505Z,100281.47
2022-10-06T05:26:31.692Z,100292.94
2022-10-06T05:28:59.216Z,100296.63
2022-10-06T05:31:29.447Z,100294.63
2022-10-06T05:33:58.280Z,100296.03
2022-10-06T05:36:28.315Z,100280.47
2022-10-06T05:38:57.438Z,100281.47
2022-10-06T05:41:26.547Z,100270.38
2022-10-06T05:43:54.661Z,100281.31
2022-10-06T05:46:28.563Z,100280.66
2022-10-06T05:48:58.891Z,100278.13
2022-10-06T05:51:31.999Z,100277.81
2022-10-06T05:54:00.410Z,100279.34
2022-10-06T05:56:30.322Z,100266.84
2022-10-06T05:58:59.476Z,100262.22
2022-10-06T06:01:27.009Z,100264.59
2022-10-06T06:03:57.340Z,100251.09
2022-10-06T06:06:30.336Z,100252.78
2022-10-06T06:09:02.029Z,100236.81
2022-10-06T06:11:32.094Z,100250.25
2022-10-06T06:14:10.066Z,100246.63
2022-10-06T06:16:39.671Z,100242.13
2022-10-06T06:19:09.071Z,100233.53
2022-10-06T06:21:37.334Z,100230.19
2022-10-06T06:24:05.501Z,100233.84
2022-10-06T06:26:36.895Z,100218.25
2022-10-06T06:29:06.465Z,100215.41
2022-10-06T06:31:36.787Z,100220.75
2022-10-06T06:34:06.828Z,100209.25
2022-10-06T06:36:41.050Z,100213.06
2022-10-06T06:39:13.217Z,100208.56
2022-10-06T06:41:46.144Z,100205.59
2022-10-06T06:44:14.147Z,100203.63
2022-10-06T06:46:43.537Z,100203.47
2022-10-06T06:49:12.266Z,100212.13
2022-10-06T06:51:42.202Z,100201.16
2022-10-06T06:54:11.263Z,100197.84
2022-10-06T06:56:39.194Z,100208.19
2022-10-06T06:59:10.597Z,100206.50
2022-10-06T07:01:47.215Z,100214.13
2022-10-06T07:04:16.455Z,100202.78
2022-10-06T07:06:58.025Z,100199.13
2022-10-06T07:09:26.634Z,100196.78
2022-10-06T07:11:55.212Z,100198.91
2022-10-06T07:14:24.210Z,100191.59
2022-10-06T07:17:27.465Z,100187.78
2022-10-06T07:20:13.484Z,100190.22
2022-10-06T07:22:59.482Z,100171.09
2022-10-06T07:25:27.592Z,100170.44
2022-10-06T07:27:55.336Z,100167.63
2022-10-06T07:30:26.546Z,100163.94
2022-10-06T07:32:55.152Z,100157.13
2022-10-06T07:35:24.549Z,100160.75
2022-10-06T07:37:55.529Z,100155.13
2022-10-06T07:40:23.237Z,100159.34
2022-10-06T07:42:53.858Z,100150.31
2022-10-06T07:45:39.161Z,100155.34
2022-10-06T07:48:14.932Z,100146.91
2022-10-06T07:50:43.538Z,100144.13
2022-10-06T07:53:11.773Z,100146.28
2022-10-06T07:55:40.888Z,100146.81
2022-10-06T07:58:20.977Z,100144.88
2022-10-06T08:00:49.011Z,100138.56
2022-10-06T08:03:18.272Z,100144.97
2022-10-06T08:05:47.882Z,100141.78
2022-10-06T08:08:16.654Z,100138.13
2022-10-06T08:10:54.798Z,100133.66
2022-10-06T08:13:23.064Z,100137.81
2022-10-06T08:15:51.577Z,100137.19
2022-10-06T08:18:44.533Z,100140.16
2022-10-06T08:21:15.823Z,100137.97
2022-10-06T08:23:44.733Z,100133.66
2022-10-06T08:26:14.354Z,100128.59
2022-10-06T08:28:47.865Z,100126.78
2022-10-06T08:31:17.893Z,100131.66
2022-10-06T08:33:46.085Z,100131.13
2022-10-06T08:36:16.690Z,100119.31
2022-10-06T08:38:46.507Z,100125.13
2022-10-06T08:41:26.787Z,100108.97
2022-10-06T08:43:57.190Z,100105.13
2022-10-06T08:46:31.312Z,100104.63
2022-10-06T08:48:59.167Z,100098.69
2022-10-06T08:51:39.019Z,100094.78
2022-10-06T08:54:21.505Z,100095.81
2022-10-06T08:57:02.690Z,100093.50
2022-10-06T08:59:34.067Z,100092.31
2022-10-06T09:02:05.758Z,100086.59
2022-10-06T09:04:34.370Z,100079.81
2022-10-06T09:07:12.235Z,100076.47
2022-10-06T09:10:19.588Z,100075.78
2022-10-06T09:13:21.065Z,100090.16
2022-10-06T09:15:57.968Z,100073.00
2022-10-06T09:19:03.801Z,100072.81
2022-10-06T09:21:40.232Z,100069.47
2022-10-06T09:24:14.493Z,100073.97
2022-10-06T09:26:45.086Z,100070.47
2022-10-06T09:29:14.683Z,100071.97
2022-10-06T09:31:44.320Z,100074.50
2022-10-06T09:34:36.375Z,100070.97
2022-10-06T09:37:10.914Z,100078.16
2022-10-06T09:39:41.043Z,100090.84
2022-10-06T09:42:23.465Z,100067.22
2022-10-06T09:44:56.384Z,100089.75
2022-10-06T09:47:35.306Z,100106.94
2022-10-06T09:50:25.772Z,100101.97
2022-10-06T09:53:03.488Z,100128.09
2022-10-06T09:55:43.505Z,100133.25
2022-10-06T09:58:31.189Z,100122.50
2022-10-06T10:01:05.960Z,100125.78
2022-10-06T10:04:08.450Z,100133.22
2022-10-06T10:06:38.481Z,100134.88
2022-10-06T10:09:28.878Z,100131.22
2022-10-06T10:12:19.010Z,100145.09
2022-10-06T10:14:46.606Z,100145.28
2022-10-06T10:17:17.361Z,100137.66
2022-10-06T10:19:55.781Z,100154.03
2022-10-06T10:22:31.131Z,100150.09
2022-10-06T10:25:16.630Z,100155.63
2022-10-06T10:28:03.833Z,100155.63
2022-10-06T10:30:38.486Z,100153.13
2022-10-06T10:33:43.198Z,100162.25
2022-10-06T10:36:22.711Z,100161.16
2022-10-06T10:38:50.908Z,100158.47
2022-10-06T10:41:24.582Z,100188.63
2022-10-06T10:43:58.594Z,100195.94
2022-10-06T10:46:46.892Z,100204.81
2022-10-06T10:49:28.173Z,100180.13
2022-10-06T10:52:09.101Z,100190.59
2022-10-06T10:54:45.627Z,100205.78
2022-10-06T10:57:16.887Z,100207.16
2022-10-06T10:59:47.251Z,100219.53
2022-10-06T11:02:22.330Z,100223.47
2022-10-06T11:04:54.383Z,100216.78
2022-10-06T11:07:33.764Z,100228.81
2022-10-06T11:10:04.076Z,100239.69
2022-10-06T11:12:52.978Z,100241.50
2022-10-06T11:15:57.806Z,100241.97
2022-10-06T11:18:37.700Z,100259.03
2022-10-06T11:21:14.618Z,100267.13
2022-10-06T11:24:04.638Z,100267.75
2022-10-06T11:26:50.519Z,100262.09
2022-10-06T11:29:49.421Z,100285.28
2022-10-06T11:32:28.840Z,100288.72
2022-10-06T11:34:56.778Z,100298.59
2022-10-06T11:37:45.165Z,100297.63
2022-10-06T11:40:41.568Z,100290.47
2022-10-06T11:43:23.249Z,100303.97
2022-10-06T11:45:57.179Z,100308.25
2022-10-06T11:48:30.131Z,100296.50
2022-10-06T11:51:23.920Z,100307.19
2022-10-06T11:53:52.894Z,100317.34
2022-10-06T11:56:20.514Z,100330.59
2022-10-06T11:58:51.066Z,100339.22
2022-10-06T12:01:30.768Z,100339.84
2022-10-06T12:04:10.523Z,100344.03
2022-10-06T12:06:47.437Z,100348.53
2022-10-06T12:09:24.326Z,100355.53
2022-10-06T12:11:54.231Z,100367.19
2022-10-06T12:17:23.498Z,100371.16
2022-10-06T12:20:18.913Z,100387.81
2022-10-06T12:23:09.960Z,100400.09
2022-10-06T12:25:49.792Z,100400.63
2022-10-06T12:28:35.265Z,100397.94
2022-10-06T12:31:18.330Z,100400.91
2022-10-06T12:33:46.236Z,100420.13
2022-10-06T12:36:31.744Z,100429.13
2022-10-06T12:39:03.080Z,100412.97
2022-10-06T12:42:01.473Z,100425.25
2022-10-06T12:44:40.377Z,100430.66
2022-10-06T12:47:19.168Z,100431.91
2022-10-06T12:49:54.022Z,100446.16
2022-10-06T12:52:51.628Z,100441.84
2022-10-06T12:55:34.314Z,100451.72
2022-10-06T12:58:02.080Z,100457.91
2022-10-06T13:00:34.627Z,100469.06
2022-10-06T13:03:06.262Z,100462.34
2022-10-06T13:05:36.275Z,100473.00
2022-10-06T13:08:07.279Z,100457.69
2022-10-06T13:10:35.208Z,100462.88
2022-10-06T13:13:18.932Z,100471.44
2022-10-06T13:15:46.664Z,100478.28
2022-10-06T13:18:16.314Z,100488.94
2022-10-06T13:20:58.198Z,100496.66
2022-10-06T13:23:38.088Z,100498.38
2022-10-06T13:26:14.246Z,100509.72
2022-10-06T13:28:42.158Z,100504.56
2022-10-06T13:31:21.069Z,100509.97
2022-10-06T13:33:59.805Z,100510.16
2022-10-06T13:36:29.613Z,100513.06
2022-10-06T13:38:57.425Z,100521.13
2022-10-06T13:41:38.112Z,100518.03
2022-10-06T13:44:11.616Z,100526.56
2022-10-06T13:46:43.556Z,100532.75
2022-10-06T13:49:21.529Z,100530.50
2022-10-06T13:51:54.420Z,100517.91
2022-10-06T13:54:40.652Z,100523.09
2022-10-06T13:57:32.831Z,100547.78
2022-10-06T14:00:07.617Z,100540.38
2022-10-06T14:02:36.514Z,100539.56
2022-10-06T14:05:22.901Z,100555.81
2022-10-06T14:07:51.297Z,100550.06
2022-10-06T14:10:23.845Z,100550.09
2022-10-06T14:12:51.656Z,100545.19
2022-10-06T14:15:21.358Z,100560.59
2022-10-06T14:18:04.678Z,100551.03
2022-10-06T14:20:41.425Z,100552.09
2022-10-06T14:23:41.263Z,100565.81
2022-10-06T14:26:11.749Z,100579.13
2022-10-06T14:28:41.111Z,100586.88
2022-10-06T14:31:14.239Z,100583.94
2022-10-06T14:33:42.979Z,100594.72
2022-10-06T14:36:19.378Z,100590.69
2022-10-06T14:38:48.047Z,100600.63
2022-10-06T14:41:19.357Z,100603.88
2022-10-06T14:43:47.890Z,100603.19
2022-10-06T14:46:16.103Z,100600.25
2022-10-06T14:48:43.767Z,100622.13
2022-10-06T14:51:11.766Z,100611.34
2022-10-06T14:53:39.581Z,100636.28
2022-10-06T14:56:10.654Z,100629.41
2022-10-06T14:58:40.183Z,100641.88
2022-10-06T15:01:09.236Z,100661.09
2022-10-06T15:03:37.057Z,100650.16
2022-10-06T15:06:42.954Z,100656.63
2022-10-06T15:09:11.144Z,100657.88
2022-10-06T15:11:39.467Z,100646.25
2022-10-06T15:14:10.667Z,100660.25
2022-10-06T15:16:42.143Z,100665.31
2022-10-06T15:19:11.055Z,100664.91
2022-10-06T15:21:40.379Z,100668.97
2022-10-06T15:24:12.282Z,100667.28
2022-10-06T15:26:58.208Z,100673.84
2022-10-06T15:29:26.252Z,100686.31
2022-10-06T15:31:55.004Z,100690.97
2022-10-06T15:34:26.718Z,100697.81
2022-10-06T15:36:56.209Z,100701.31
2022-10-06T15:39:27.021Z,100690.84
2022-10-06T15:41:55.162Z,100713.53
2022-10-06T15:44:23.094Z,100713.06
2022-10-06T15:46:54.038Z,100718.72
2022-10-06T15:49:22.968Z,100731.59
2022-10-06T15:51:56.646Z,100724.69
2022-10-06T15:54:26.896Z,100740.09
2022-10-06T15:56:56.714Z,100742.63
2022-10-06T15:59:25.649Z,100754.25
2022-10-06T16:01:56.870Z,100754.41
2022-10-06T16:04:27.598Z,100746.81
2022-10-06T16:06:56.104Z,100756.78
2022-10-06T16:09:32.511Z,100751.56
2022-10-06T16:12:02.745Z,100767.94
2022-10-06T16:14:30.682Z,100771.88
2022-10-06T16:17:02.630Z,100772.72
2022-10-06T16:19:32.108Z,100770.75
2022-10-06T16:22:00.246Z,100768.19
2022-10-06T16:24:27.857Z,100772.41
2022-10-06T16:26:57.520Z,100772.28
2022-10-06T16:29:26.189Z,100776.16
2022-10-06T16:31:53.796Z,100776.44
2022-10-06T16:34:21.596Z,100792.94
2022-10-06T16:36:49.482Z,100790.03
2022-10-06T16:39:23.811Z,100797.03
2022-10-06T16:41:51.704Z,100793.94
2022-10-06T16:44:19.500Z,100802.34
2022-10-06T16:46:47.044Z,100797.13
2022-10-06T16:49:15.143Z,100797.25
2022-10-06T16:51:45.781Z,100799.19
2022-10-06T16:54:14.943Z,100806.59
2022-10-06T16:56:47.490Z,100800.16
2022-10-06T16:59:16.204Z,100809.94
2022-10-06T17:01:44.160Z,100803.78
2022-10-06T17:04:17.146Z,100801.28
2022-10-06T17:06:47.346Z,100817.38
2022-10-06T17:09:17.432Z,100808.69
2022-10-06T17:11:48.084Z,100805.19
2022-10-06T17:14:16.470Z,100814.84
2022-10-06T17:16:45.975Z,100818.88
2022-10-06T17:19:16.814Z,100815.69
2022-10-06T17:21:47.382Z,100817.97
2022-10-06T17:24:17.986Z,100827.44
2022-10-06T17:26:48.276Z,100814.72
2022-10-06T17:29:19.122Z,100831.22
2022-10-06T17:31:47.742Z,100837.78
2022-10-06T17:34:20.665Z,100836.34
2022-10-06T17:36:51.075Z,100833.88
2022-10-06T17:39:23.156Z,100844.00
2022-10-06T17:41:52.789Z,100835.69
2022-10-06T17:44:23.491Z,100843.69
2022-10-06T17:46:55.188Z,100848.59
2022-10-06T17:49:24.375Z,100841.59
2022-10-06T17:51:53.817Z,100848.03
2022-10-06T17:54:23.594Z,100854.16
2022-10-06T17:56:54.250Z,100863.72
2022-10-06T17:59:28.915Z,100858.72
2022-10-06T18:01:59.286Z,100858.06
2022-10-06T18:04:27.331Z,100861.44
2022-10-06T18:06:55.581Z,100861.72
2022-10-06T18:09:23.276Z,100863.25
2022-10-06T18:11:56.213Z,100874.59
2022-10-06T18:14:26.337Z,100875.34
2022-10-06T18:16:57.597Z,100870.81
2022-10-06T18:19:29.947Z,100884.59
2022-10-06T18:22:00.744Z,100879.41
2022-10-06T18:24:30.612Z,100883.75
2022-10-06T18:27:00.474Z,100878.25
2022-10-06T18:29:34.460Z,100884.03
2022-10-06T18:32:58.967Z,100876.56
2022-10-06T18:37:37.818Z,100894.66
2022-10-06T18:40:08.834Z,100886.16
2022-10-06T18:42:36.857Z,100885.75
2022-10-06T18:45:24.551Z,100887.38
2022-10-06T18:48:10.418Z,100892.31
2022-10-06T18:50:39.144Z,100890.78
2022-10-06T18:53:06.977Z,100905.63
2022-10-06T18:55:35.164Z,100891.66
2022-10-06T18:58:04.606Z,100902.69
2022-10-06T19:00:32.479Z,100903.97
2022-10-06T19:03:00.132Z,100907.75
2022-10-06T19:05:27.999Z,100915.91
2022-10-06T19:07:55.846Z,100903.56
2022-10-06T19:10:23.523Z,100911.53
2022-10-06T19:12:51.358Z,100908.34
2022-10-06T19:15:21.027Z,100907.50
2022-10-06T19:17:49.639Z,100903.66
2022-10-06T19:20:18.683Z,100914.56
2022-10-06T19:22:47.592Z,100928.56
2022-10-06T19:25:18.903Z,100922.66
2022-10-06T19:27:47.078Z,100926.41
2022-10-06T19:30:15.985Z,100930.91
2022-10-06T19:32:43.645Z,100930.91
2022-10-06T19:35:11.391Z,100943.88
2022-10-06T19:37:39.294Z,100943.03
2022-10-06T19:40:08.896Z,100944.94
2022-10-06T19:42:49.115Z,100943.66
2022-10-06T19:45:18.542Z,100951.66
2022-10-06T19:47:47.354Z,100949.25
2022-10-06T19:50:17.183Z,100959.28
2022-10-06T19:52:45.665Z,100957.59
2022-10-06T19:55:13.774Z,100964.25
2022-10-06T19:57:41.745Z,100957.22
2022-10-06T20:00:10.306Z,100958.06
2022-10-06T20:02:42.164Z,100969.34
2022-10-06T20:05:12.592Z,100973.44
2022-10-06T20:07:41.380Z,100967.53
2022-10-06T20:10:11.890Z,100970.44
2022-10-06T20:12:41.579Z,100967.91
2022-10-06T20:15:10.209Z,100976.72
2022-10-06T20:17:37.882Z,100975.75
2022-10-06T20:20:05.862Z,100986.25
2022-10-06T20:22:33.486Z,100994.50
2022-10-06T20:25:02.330Z,100985.56
2022-10-06T20:27:30.107Z,100988.47
2022-10-06T20:29:58.216Z,100987.59
2022-10-06T20:32:25.980Z,100995.50
2022-10-06T20:34:53.568Z,101010.19
2022-10-06T20:37:21.045Z,101011.19
2022-10-06T20:40:06.708Z,101013.13
2022-10-06T20:42:34.460Z,101008.78
2022-10-06T20:45:01.902Z,101014.09
2022-10-06T20:47:29.886Z,101014.38
2022-10-06T20:49:57.604Z,101019.44
2022-10-06T20:52:25.454Z,101023.66
2022-10-06T20:54:53.247Z,101023.66
2022-10-06T20:57:20.830Z,101026.66
2022-10-06T20:59:49.234Z,101018.09
2022-10-06T21:02:17.158Z,101026.31
2022-10-06T21:04:45.199Z,101031.28
2022-10-06T21:07:12.990Z,101032.50
2022-10-06T21:09:40.778Z,101027.19
2022-10-06T21:12:08.589Z,101025.38
2022-10-06T21:14:37.592Z,101031.28
2022-10-06T21:17:05.983Z,101037.94
2022-10-06T21:19:38.012Z,101028.88
2022-10-06T21:22:05.689Z,101041.56
2022-10-06T21:24:33.138Z,101044.47
2022-10-06T21:27:00.876Z,101044.34
2022-10-06T21:29:28.641Z,101044.59
2022-10-06T21:31:56.434Z,101044.69
2022-10-06T21:34:24.664Z,101043.88
2022-10-06T21:36:52.208Z,101050.00
2022-10-06T21:39:19.701Z,101056.69
2022-10-06T21:41:47.157Z,101048.94
2022-10-06T21:44:16.827Z,101051.63
2022-10-06T21:46:52.904Z,101058.50
2022-10-06T21:49:25.310Z,101043.97
2022-10-06T21:51:55.390Z,101052.41
2022-10-06T21:54:23.831Z,101057.53
2022-10-06T21:56:51.632Z,101057.88
2022-10-06T21:59:19.285Z,101056.44
2022-10-06T22:01:49.835Z,101053.66
2022-10-06T22:04:17.589Z,101049.66
2022-10-06T22:06:49.960Z,101055.41
2022-10-06T22:09:19.302Z,101062.69
2022-10-06T22:11:47.178Z,101061.00
2022-10-06T22:14:17.569Z,101067.56
2022-10-06T22:16:45.535Z,101064.41
2022-10-06T22:19:14.613Z,101063.44
2022-10-06T22:21:45.020Z,101060.44
2022-10-06T22:24:15.566Z,101069.28
2022-10-06T22:26:44.096Z,101071.69
2022-10-06T22:29:13.951Z,101076.00
2022-10-06T22:31:43.415Z,101073.59
2022-10-06T22:34:13.239Z,101077.00
2022-10-06T22:36:41.076Z,101079.25
2022-10-06T22:39:08.995Z,101075.66
2022-10-06T22:41:37.067Z,101080.38
2022-10-06T22:44:04.674Z,101086.19
2022-10-06T22:46:35.582Z,101082.69
2022-10-06T22:49:04.655Z,101073.00
2022-10-06T22:51:32.998Z,101083.78
2022-10-06T22:54:01.190Z,101080.16
2022-10-06T22:56:31.874Z,101078.81
2022-10-06T22:59:00.764Z,101079.16
2022-10-06T23:01:29.447Z,101083.28
2022-10-06T23:03:57.843Z,101078.19
2022-10-06T23:06:25.979Z,101093.16
2022-10-06T23:08:53.514Z,101084.81
2022-10-06T23:11:22.117Z,101088.59
2022-10-06T23:13:50.637Z,101087.00
2022-10-06T23:16:19.539Z,101093.06
2022-10-06T23:18:47.963Z,101093.31
2022-10-06T23:21:21.961Z,101089.78
2022-10-06T23:23:55.258Z,101086.44
2022-10-06T23:26:23.869Z,101088.59
2022-10-06T23:28:53.614Z,101086.28
2022-10-06T23:31:21.527Z,101076.72
2022-10-06T23:33:49.349Z,101094.75
2022-10-06T23:36:17.948Z,101090.66
2022-10-06T23:38:46.773Z,101105.03
2022-10-06T23:41:14.988Z,101094.16
2022-10-06T23:43:42.591Z,101105.50
2022-10-06T23:46:10.430Z,101102.59
2022-10-06T23:48:38.713Z,101096.44
2022-10-06T23:51:11.741Z,101103.56
2022-10-06T23:53:40.082Z,101107.22
2022-10-06T23:56:08.251Z,101099.94
2022-10-06T23:58:36.521Z,101110.22
